Time;durP1;ratioP1;P1;durP2;ratioP2;P2;SDS_P1;SDS_P2;PMS_P1;PMS_P2;Temp;Humidity;BMP_temperature;BMP_pressure;BME280_temperature;BME280_humidity;BME280_pressure;Samples;Min_cycle;Max_cycle;Signal;HPM_P1;HPM_P2
2020/12/20 00:01:18;;;;;;;25.92;17.05;;;;;;;3.57;79.56;100951.64;2900056;82;21121;-62
2020/12/20 00:05:24;;;;;;;26.25;18.52;;;;;;;3.45;80.20;100945.13;2900007;82;21089;-62
2020/12/20 00:09:27;;;;;;;28.13;19.23;;;;;;;3.36;80.28;100940.26;2900433;82;21165;-61
2020/12/20 00:13:30;;;;;;;33.42;24.18;;;;;;;3.26;80.79;100949.82;2900136;82;21164;-63
2020/12/20 00:17:38;;;;;;;60.30;34.58;;;;;;;3.26;80.54;100956.39;2900047;82;21137;-63
2020/12/20 00:21:45;;;;;;;113.30;52.48;;;;;;;3.37;80.46;100966.95;2899953;82;21638;-62
2020/12/20 00:25:49;;;;;;;60.58;30.35;;;;;;;3.42;80.11;100968.92;2898745;82;21117;-63
2020/12/20 00:29:53;;;;;;;24.27;15.72;;;;;;;3.42;80.38;100968.92;2897697;82;21145;-64
2020/12/20 00:33:56;;;;;;;29.45;17.02;;;;;;;3.37;79.91;100966.95;2897984;82;21133;-64
2020/12/20 00:37:59;;;;;;;20.43;14.45;;;;;;;3.33;80.06;100972.78;2897836;82;21140;-63
2020/12/20 00:42:05;;;;;;;25.50;15.25;;;;;;;3.25;80.41;100966.99;2897628;82;21160;-61
2020/12/20 00:46:09;;;;;;;28.10;16.30;;;;;;;3.19;80.52;100962.83;2897826;82;21161;-63
2020/12/20 00:50:12;;;;;;;20.43;12.28;;;;;;;3.07;80.83;100964.62;2898030;82;21114;-60
2020/12/20 00:54:16;;;;;;;16.60;11.35;;;;;;;2.99;81.23;100974.98;2897754;82;21128;-63
2020/12/20 00:58:19;;;;;;;22.82;15.23;;;;;;;2.89;81.12;100971.00;2897979;82;21125;-63
2020/12/20 01:02:23;;;;;;;22.77;13.40;;;;;;;2.82;81.59;100976.09;2897660;82;21153;-63
2020/12/20 01:06:27;;;;;;;23.65;14.78;;;;;;;2.70;82.35;100972.17;2897853;82;21149;-62
2020/12/20 01:10:30;;;;;;;21.30;10.60;;;;;;;2.61;82.79;100977.31;2897957;82;21144;-62
2020/12/20 01:14:34;;;;;;;16.90;10.95;;;;;;;2.55;83.30;100967.89;2897897;82;21113;-63
2020/12/20 01:18:37;;;;;;;14.63;11.73;;;;;;;2.53;83.35;100976.72;2897828;82;21709;-63
2020/12/20 01:22:41;;;;;;;17.77;13.70;;;;;;;2.45;83.83;100974.85;2898152;82;21169;-62
2020/12/20 01:26:45;;;;;;;22.05;11.33;;;;;;;2.45;84.00;100972.23;2899321;81;21109;-62
2020/12/20 01:30:52;;;;;;;21.73;14.28;;;;;;;2.43;84.21;100967.89;2900091;82;21239;-64
2020/12/20 01:34:54;;;;;;;44.93;23.17;;;;;;;2.43;84.04;100969.20;2900401;82;21125;-62
2020/12/20 01:38:58;;;;;;;40.83;24.80;;;;;;;2.49;83.84;100969.88;2899991;82;21125;-62
2020/12/20 01:43:01;;;;;;;41.48;20.68;;;;;;;2.55;83.27;100966.58;2900345;82;21189;-62
2020/12/20 01:47:05;;;;;;;26.45;16.97;;;;;;;2.65;82.72;100964.45;2900458;82;21149;-64
2020/12/20 01:51:09;;;;;;;40.43;22.90;;;;;;;2.64;82.25;100968.00;2900259;82;21654;-63
2020/12/20 01:55:14;;;;;;;53.65;27.93;;;;;;;2.64;82.34;100964.06;2900118;82;21113;-64
2020/12/20 01:59:18;;;;;;;15.32;9.90;;;;;;;2.62;83.09;100959.33;2900404;82;21145;-62
2020/12/20 02:03:24;;;;;;;13.68;10.38;;;;;;;2.58;82.96;100951.17;2900248;82;21149;-65
2020/12/20 02:07:27;;;;;;;14.80;9.80;;;;;;;2.46;82.69;100948.99;2893100;81;21144;-64
2020/12/20 02:11:30;;;;;;;13.72;8.60;;;;;;;2.34;83.47;100943.27;2880084;82;21128;-61
2020/12/20 02:15:33;;;;;;;17.48;13.53;;;;;;;2.26;83.77;100937.45;2880258;82;21149;-63
2020/12/20 02:19:37;;;;;;;30.60;17.70;;;;;;;2.22;83.94;100926.67;2880152;82;21587;-64
2020/12/20 02:23:47;;;;;;;33.55;18.85;;;;;;;2.27;83.92;100936.54;2880034;82;21128;-61
2020/12/20 02:27:51;;;;;;;15.80;11.18;;;;;;;2.29;83.32;100926.83;2879947;82;21121;-65
2020/12/20 02:31:54;;;;;;;21.37;12.33;;;;;;;2.28;83.21;100922.50;2879944;82;21214;-61
2020/12/20 02:36:00;;;;;;;32.73;17.87;;;;;;;2.28;82.90;100912.00;2879763;82;22271;-63
2020/12/20 02:40:05;;;;;;;28.17;16.20;;;;;;;2.29;83.71;100909.77;2879989;82;21626;-63
2020/12/20 02:44:08;;;;;;;14.78;9.75;;;;;;;2.32;83.73;100922.78;2879834;82;21820;-62
2020/12/20 02:48:12;;;;;;;14.05;8.63;;;;;;;2.39;84.47;100913.78;2880140;82;21113;-62
2020/12/20 02:52:19;;;;;;;10.85;8.48;;;;;;;2.51;83.82;100906.33;2879860;82;21144;-63
2020/12/20 02:56:22;;;;;;;;;;;;;;;2.50;83.68;100921.25;2882689;82;21217;-63
2020/12/20 03:00:26;;;;;;;11.55;9.63;;;;;;;2.51;83.99;100922.09;2880052;82;20498;-63
2020/12/20 03:04:29;;;;;;;9.78;8.00;;;;;;;2.64;84.55;100922.03;2880053;82;21160;-62
2020/12/20 03:08:33;;;;;;;15.30;9.00;;;;;;;2.83;84.26;100916.06;2880032;82;21167;-62
2020/12/20 03:12:37;;;;;;;13.80;9.93;;;;;;;2.88;83.30;100907.53;2880223;82;21108;-62
2020/12/20 03:16:40;;;;;;;11.53;8.25;;;;;;;2.85;83.13;100899.33;2880201;82;21117;-62
2020/12/20 03:20:44;;;;;;;16.73;11.48;;;;;;;2.77;82.87;100905.33;2879859;82;21128;-63
2020/12/20 03:24:47;;;;;;;13.03;8.60;;;;;;;2.66;83.08;100916.25;2879762;82;21184;-63
2020/12/20 03:28:50;;;;;;;11.10;9.83;;;;;;;2.70;83.86;100913.06;2880944;82;21149;-63
2020/12/20 03:32:56;;;;;;;8.75;7.30;;;;;;;2.82;83.75;100915.19;2915281;81;21563;-62
2020/12/20 03:36:59;;;;;;;12.68;8.53;;;;;;;2.84;83.08;100930.91;2915167;81;21141;-64
2020/12/20 03:41:03;;;;;;;12.53;8.63;;;;;;;2.93;83.39;100928.37;2915410;81;21668;-63
2020/12/20 03:45:06;;;;;;;15.78;9.40;;;;;;;3.05;83.16;100929.22;2915430;81;21117;-61
2020/12/20 03:49:10;;;;;;;16.42;9.15;;;;;;;3.18;82.51;100932.20;2915181;81;21591;-63
2020/12/20 03:53:13;;;;;;;12.40;10.13;;;;;;;3.21;81.90;100926.81;2914784;81;21885;-62
2020/12/20 03:57:17;;;;;;;12.03;7.37;;;;;;;3.21;81.29;100927.25;2914799;81;21137;-63
2020/12/20 04:01:20;;;;;;;11.63;9.83;;;;;;;3.05;80.92;100923.09;2915199;81;21174;-63
2020/12/20 04:05:24;;;;;;;9.45;7.42;;;;;;;2.94;81.47;100923.04;2915102;81;21125;-63
2020/12/20 04:09:27;;;;;;;11.35;7.85;;;;;;;2.95;81.22;100920.84;2915387;81;21113;-62
2020/12/20 04:13:33;;;;;;;12.15;8.15;;;;;;;2.84;80.99;100924.34;2915419;81;21153;-62
2020/12/20 04:17:38;;;;;;;13.48;8.75;;;;;;;2.66;80.91;100924.14;2915110;81;21591;-62
2020/12/20 04:21:41;;;;;;;15.68;10.20;;;;;;;2.51;81.24;100925.59;2915229;81;21472;-62
2020/12/20 04:25:45;;;;;;;13.32;9.23;;;;;;;2.30;81.81;100926.39;2914298;81;21114;-63
2020/12/20 04:29:48;;;;;;;16.35;11.30;;;;;;;2.17;82.78;100932.55;2910030;81;21169;-62
2020/12/20 04:33:52;;;;;;;13.05;9.73;;;;;;;2.13;83.19;100930.02;2910265;81;21181;-62
2020/12/20 04:37:56;;;;;;;14.45;9.45;;;;;;;2.09;83.41;100921.86;2910362;81;21164;-61
2020/12/20 04:42:00;;;;;;;12.53;9.35;;;;;;;2.10;83.59;100931.44;2910124;81;21125;-64
2020/12/20 04:46:05;;;;;;;17.45;11.18;;;;;;;2.11;83.43;100933.16;2910366;81;21160;-62
2020/12/20 04:50:11;;;;;;;15.18;9.90;;;;;;;2.12;83.73;100934.86;2910060;81;22324;-62
2020/12/20 04:54:17;;;;;;;18.32;11.78;;;;;;;2.17;83.41;100945.68;2910140;80;21149;-62
2020/12/20 04:58:22;;;;;;;21.82;11.80;;;;;;;2.12;83.21;100942.73;2892070;80;21148;-62
2020/12/20 05:02:29;;;;;;;49.18;32.33;;;;;;;2.12;83.01;100945.36;2892710;82;21148;-63
2020/12/20 05:06:34;;;;;;;130.15;83.50;;;;;;;2.25;82.50;100948.87;2848103;83;21149;-63
2020/12/20 05:10:39;;;;;;;167.53;106.85;;;;;;;2.24;80.52;100951.09;2860234;82;21117;-62
2020/12/20 05:14:42;;;;;;;156.87;94.55;;;;;;;2.21;79.66;100963.87;2944409;79;21148;-63
2020/12/20 05:18:51;;;;;;;150.35;94.15;;;;;;;1.95;77.62;100963.03;2944371;80;21100;-62
2020/12/20 05:22:57;;;;;;;155.75;97.70;;;;;;;1.54;77.39;100966.14;2944264;79;21136;-61
2020/12/20 05:27:02;;;;;;;152.90;88.07;;;;;;;1.38;78.03;100968.89;2939654;80;21136;-62
2020/12/20 05:31:09;;;;;;;122.33;81.47;;;;;;;1.16;77.78;100975.27;2932598;79;21152;-61
2020/12/20 05:35:15;;;;;;;117.47;78.33;;;;;;;0.98;78.43;100967.94;2932608;79;21164;-63
2020/12/20 05:39:20;;;;;;;152.30;87.97;;;;;;;0.87;78.71;100976.57;2932612;81;21657;-62
2020/12/20 05:43:27;;;;;;;113.05;73.02;;;;;;;0.88;79.26;100975.66;2932635;79;21128;-61
2020/12/20 05:47:31;;;;;;;135.95;79.20;;;;;;;0.92;79.27;100980.37;2932615;81;21594;-61
2020/12/20 05:51:35;;;;;;;119.57;74.97;;;;;;;0.97;79.37;100986.32;2932645;81;21570;-63
2020/12/20 05:55:40;;;;;;;124.62;75.12;;;;;;;1.10;79.76;100992.91;2932537;79;21168;-62
2020/12/20 05:59:47;;;;;;;141.33;80.57;;;;;;;1.26;79.57;100978.86;2932659;81;21164;-63
2020/12/20 06:03:50;;;;;;;131.05;72.60;;;;;;;1.43;79.06;100987.48;2879703;82;21161;-61
2020/12/20 06:07:56;;;;;;;127.30;73.60;;;;;;;1.50;78.06;100992.07;2932171;81;21590;-62
2020/12/20 06:12:00;;;;;;;124.50;76.85;;;;;;;1.51;77.70;100984.61;2879463;82;21638;-63
2020/12/20 06:16:08;;;;;;;122.72;71.47;;;;;;;1.56;77.72;100987.92;2932662;81;21152;-65
2020/12/20 06:20:17;;;;;;;123.85;71.87;;;;;;;1.51;77.09;100991.64;2879576;82;21172;-63
2020/12/20 06:24:26;;;;;;;121.80;69.53;;;;;;;1.52;77.53;100994.19;2932232;81;21180;-62
2020/12/20 06:28:31;;;;;;;122.37;71.87;;;;;;;1.54;77.24;100986.28;2887200;81;21176;-62
2020/12/20 06:32:45;;;;;;;116.00;67.35;;;;;;;1.57;76.89;100986.17;2899973;82;21214;-64
2020/12/20 06:36:50;;;;;;;103.35;71.35;;;;;;;1.63;76.83;100992.99;2893272;81;21164;-62
2020/12/20 06:40:54;;;;;;;108.85;66.60;;;;;;;1.63;76.41;100995.62;2880042;82;21160;-62
2020/12/20 06:45:21;;;;;;;135.32;76.02;;;;;;;1.58;75.79;100993.61;2880018;81;21172;-62
2020/12/20 06:49:40;;;;;;;127.80;70.57;;;;;;;1.60;76.49;101000.97;2880497;82;21137;-62
2020/12/20 06:53:52;;;;;;;134.30;75.90;;;;;;;1.58;75.96;100998.38;2880043;82;21117;-61
2020/12/20 06:58:12;;;;;;;119.30;69.82;;;;;;;1.66;75.83;100996.82;2880054;82;21093;-61
2020/12/20 07:02:37;;;;;;;109.07;71.45;;;;;;;1.68;75.66;100998.94;2880013;82;21145;-62
2020/12/20 07:06:41;;;;;;;126.27;73.33;;;;;;;1.66;75.80;100994.20;2871589;81;21159;-62
2020/12/20 07:10:53;;;;;;;120.30;70.72;;;;;;;1.63;75.49;100998.23;2880231;82;21157;-61
2020/12/20 07:14:56;;;;;;;104.45;67.10;;;;;;;1.65;75.84;101006.44;2879997;82;21157;-63
2020/12/20 07:19:03;;;;;;;114.37;74.85;;;;;;;1.70;76.14;101003.23;2880052;82;21129;-63
2020/12/20 07:23:09;;;;;;;133.07;74.32;;;;;;;1.75;75.96;100996.50;2879926;82;21129;-63
2020/12/20 07:27:13;;;;;;;141.75;75.95;;;;;;;1.73;75.93;101009.28;2879997;80;21674;-63
2020/12/20 07:31:19;;;;;;;120.42;75.62;;;;;;;1.75;76.57;101022.73;2879907;81;21137;-63
2020/12/20 07:35:22;;;;;;;130.37;79.57;;;;;;;1.87;76.94;101014.06;2880389;82;21136;-65
2020/12/20 07:39:26;;;;;;;122.82;80.77;;;;;;;1.92;76.47;101014.75;2879807;82;22264;-65
2020/12/20 07:43:30;;;;;;;131.95;75.45;;;;;;;1.92;76.36;101015.63;2879745;82;21208;-65
2020/12/20 07:47:34;;;;;;;132.45;78.97;;;;;;;1.94;76.55;101019.05;2879916;81;21137;-64
2020/12/20 07:51:38;;;;;;;119.77;69.53;;;;;;;2.12;77.52;101010.98;2879868;82;21145;-64
2020/12/20 07:55:48;;;;;;;126.95;76.67;;;;;;;2.35;77.77;101006.69;2880171;82;21144;-63
2020/12/20 08:00:09;;;;;;;162.75;110.28;;;;;;;2.50;78.01;101007.05;2880210;82;21156;-64
2020/12/20 08:04:21;;;;;;;614.73;491.38;;;;;;;2.61;78.16;101008.84;2880156;82;21101;-64
2020/12/20 08:08:27;;;;;;;923.02;534.33;;;;;;;2.71;78.32;101012.81;2880044;82;21165;-64
2020/12/20 08:12:35;;;;;;;515.20;275.20;;;;;;;2.77;78.04;101015.68;2880129;82;21153;-62
2020/12/20 08:16:45;;;;;;;559.83;325.30;;;;;;;2.78;78.54;101005.56;2879641;82;22184;-63
2020/12/20 08:20:48;;;;;;;867.10;496.25;;;;;;;2.85;78.51;101020.66;2879857;82;21137;-63
2020/12/20 08:24:53;;;;;;;349.10;178.53;;;;;;;2.91;78.77;101011.21;2880219;82;21133;-65
2020/12/20 08:28:57;;;;;;;523.23;286.43;;;;;;;3.03;79.35;101019.08;2880657;82;21176;-64
2020/12/20 08:33:01;;;;;;;153.27;80.45;;;;;;;3.15;80.00;101019.09;2913676;81;21153;-62
2020/12/20 08:37:12;;;;;;;83.27;46.33;;;;;;;3.32;80.10;101020.17;2915162;81;21157;-62
2020/12/20 08:41:23;;;;;;;53.08;38.20;;;;;;;3.39;80.12;101020.34;2966878;80;21622;-64
2020/12/20 08:45:29;;;;;;;56.02;37.93;;;;;;;3.42;80.74;101025.48;2915306;81;21172;-65
2020/12/20 08:49:33;;;;;;;50.17;34.00;;;;;;;3.49;81.16;101018.20;2967348;79;21567;-65
2020/12/20 08:53:40;;;;;;;53.17;32.30;;;;;;;3.59;81.31;101029.20;2967008;80;21145;-63
2020/12/20 08:57:43;;;;;;;61.80;40.90;;;;;;;3.68;81.43;101031.45;2915425;80;21161;-65
2020/12/20 09:01:46;;;;;;;61.23;38.48;;;;;;;3.85;81.67;101022.39;2930888;80;21175;-64
2020/12/20 09:05:49;;;;;;;54.05;32.00;;;;;;;4.03;81.46;101022.54;2926232;80;21151;-65
2020/12/20 09:10:04;;;;;;;70.57;40.23;;;;;;;4.14;81.23;101024.71;2953756;80;21589;-65
2020/12/20 09:14:11;;;;;;;71.67;40.50;;;;;;;4.30;81.17;101027.52;2953199;80;21140;-63
2020/12/20 09:18:18;;;;;;;55.00;40.23;;;;;;;4.46;81.26;101032.12;2912652;81;21181;-65
2020/12/20 09:22:21;;;;;;;73.97;41.23;;;;;;;4.57;80.96;101032.03;2884869;80;21135;-65
2020/12/20 09:26:26;;;;;;;50.50;31.30;;;;;;;4.78;81.20;101031.15;2877625;81;21173;-64
2020/12/20 09:30:46;;;;;;;41.85;26.57;;;;;;;5.00;81.21;101027.91;2863465;82;21180;-65
2020/12/20 09:34:49;;;;;;;45.58;26.80;;;;;;;5.20;80.70;101024.80;2871468;81;21156;-65
2020/12/20 09:38:58;;;;;;;42.95;30.23;;;;;;;5.39;80.50;101022.59;2898073;81;21605;-64
2020/12/20 09:43:01;;;;;;;35.73;24.23;;;;;;;5.56;80.18;101027.91;2926309;80;21148;-65
2020/12/20 09:47:04;;;;;;;29.20;18.40;;;;;;;5.71;79.64;101022.81;2918070;81;21121;-63
2020/12/20 09:51:09;;;;;;;17.12;12.63;;;;;;;5.77;79.34;101014.58;2837403;81;21145;-65
2020/12/20 09:55:12;;;;;;;18.65;13.98;;;;;;;5.89;79.23;101021.48;2838711;81;21173;-64
2020/12/20 09:59:16;;;;;;;32.08;23.27;;;;;;;6.04;78.91;101010.17;2867634;81;21164;-63
2020/12/20 10:03:20;;;;;;;16.87;12.78;;;;;;;6.14;78.68;101007.91;2867513;82;21122;-63
2020/12/20 10:07:24;;;;;;;15.43;10.28;;;;;;;6.22;78.16;101002.23;2867865;82;21181;-63
2020/12/20 10:11:29;;;;;;;16.93;11.73;;;;;;;6.32;77.89;101009.22;2867559;82;21117;-63
2020/12/20 10:15:32;;;;;;;22.32;14.28;;;;;;;6.43;77.81;101011.67;2891750;81;21144;-62
2020/12/20 10:19:36;;;;;;;21.35;13.40;;;;;;;6.50;77.50;101007.41;2918465;81;21117;-62
2020/12/20 10:23:39;;;;;;;24.98;14.18;;;;;;;6.56;77.21;101010.55;2918219;81;21140;-62
2020/12/20 10:27:43;;;;;;;21.52;12.73;;;;;;;6.66;76.63;101004.30;2929395;79;21149;-62
2020/12/20 10:31:46;;;;;;;22.52;12.80;;;;;;;6.70;76.62;101012.93;2917844;80;21190;-63
2020/12/20 10:35:50;;;;;;;28.73;18.15;;;;;;;6.82;76.69;101013.59;2921560;80;21118;-61
2020/12/20 10:39:56;;;;;;;20.30;15.78;;;;;;;6.85;76.18;101010.78;2924177;80;21127;-62
2020/12/20 10:43:59;;;;;;;23.40;15.20;;;;;;;6.86;76.02;101004.55;2924563;81;21150;-62
2020/12/20 10:48:03;;;;;;;16.65;13.30;;;;;;;6.92;75.95;101006.47;2924486;80;21158;-64
2020/12/20 10:52:07;;;;;;;17.35;11.28;;;;;;;6.95;75.81;101003.20;2975786;80;21122;-63
2020/12/20 10:56:12;;;;;;;18.07;12.60;;;;;;;6.98;75.63;101005.66;2904084;81;21175;-63
2020/12/20 11:00:16;;;;;;;21.42;14.23;;;;;;;7.02;74.87;100998.88;2914347;81;22260;-62
2020/12/20 11:04:22;;;;;;;23.40;14.50;;;;;;;7.09;74.84;101001.59;2936727;80;21152;-63
2020/12/20 11:08:28;;;;;;;39.23;23.52;;;;;;;7.18;74.84;100998.41;2914431;81;21168;-60
2020/12/20 11:12:33;;;;;;;16.70;10.70;;;;;;;7.26;74.72;100997.98;2914638;80;21117;-63
2020/12/20 11:16:38;;;;;;;6.83;5.53;;;;;;;7.31;73.90;100993.27;2914059;81;21120;-64
2020/12/20 11:20:42;;;;;;;7.62;5.80;;;;;;;7.34;73.59;100998.88;2914485;81;21128;-63
2020/12/20 11:24:45;;;;;;;9.15;4.92;;;;;;;7.28;73.40;100986.37;2914262;81;21152;-63
2020/12/20 11:28:52;;;;;;;6.55;5.80;;;;;;;7.25;73.43;100985.20;2908638;80;21128;-62
2020/12/20 11:32:55;;;;;;;7.53;6.62;;;;;;;7.26;73.94;100984.75;2900743;81;21606;-60
2020/12/20 11:36:59;;;;;;;5.25;4.37;;;;;;;7.21;73.17;100979.70;2901063;81;21149;-60
2020/12/20 11:41:04;;;;;;;8.25;6.05;;;;;;;7.10;72.91;100980.80;2897668;80;21148;-61
2020/12/20 11:45:07;;;;;;;9.13;5.35;;;;;;;7.03;72.89;100977.64;2948933;80;21217;-62
2020/12/20 11:49:11;;;;;;;10.75;6.47;;;;;;;6.97;73.40;100982.80;2904411;80;21165;-61
2020/12/20 11:53:14;;;;;;;8.03;6.78;;;;;;;7.01;73.75;100983.49;2873425;82;21133;-62
2020/12/20 11:57:18;;;;;;;9.88;6.72;;;;;;;6.97;73.28;100976.19;2946140;80;21619;-61
2020/12/20 12:01:24;;;;;;;12.65;7.22;;;;;;;6.89;73.29;100986.80;2949300;80;21144;-60
2020/12/20 12:05:29;;;;;;;16.90;10.15;;;;;;;6.85;73.53;100980.37;2949203;80;21150;-61
2020/12/20 12:09:32;;;;;;;16.95;9.80;;;;;;;6.86;73.79;100976.78;2948987;80;21138;-62
2020/12/20 12:13:36;;;;;;;9.50;7.78;;;;;;;6.81;73.44;100971.36;2948947;80;21172;-60
2020/12/20 12:17:40;;;;;;;11.05;7.33;;;;;;;6.76;73.93;100969.44;2948746;80;21576;-60
2020/12/20 12:21:43;;;;;;;7.95;6.08;;;;;;;6.77;73.85;100969.83;2937930;80;21579;-61
2020/12/20 12:25:47;;;;;;;12.75;9.13;;;;;;;6.79;74.19;100973.23;2877432;80;21227;-62
2020/12/20 12:29:51;;;;;;;15.20;11.12;;;;;;;6.78;74.20;100968.89;2903392;81;21610;-62
2020/12/20 12:33:56;;;;;;;11.95;8.83;;;;;;;6.80;74.21;100973.16;2898665;81;21570;-61
2020/12/20 12:37:59;;;;;;;25.90;13.93;;;;;;;6.81;74.28;100968.72;2917966;81;21164;-61
2020/12/20 12:42:05;;;;;;;27.02;17.07;;;;;;;6.83;74.54;100966.84;2917830;80;21153;-62
2020/12/20 12:46:10;;;;;;;108.63;52.77;;;;;;;6.87;74.70;100963.08;2895759;81;21133;-63
2020/12/20 12:50:15;;;;;;;66.10;30.92;;;;;;;6.89;74.79;100963.88;2940038;79;21148;-62
2020/12/20 12:54:19;;;;;;;37.35;23.50;;;;;;;6.85;74.43;100964.95;2880685;82;21149;-62
2020/12/20 12:58:27;;;;;;;22.02;15.83;;;;;;;6.77;74.34;100956.12;2891745;82;21139;-63
2020/12/20 13:02:32;;;;;;;26.85;15.78;;;;;;;6.73;74.58;100949.78;2899826;82;21149;-61
2020/12/20 13:06:36;;;;;;;9.10;8.18;;;;;;;6.60;74.37;100943.84;2899964;82;21137;-60
2020/12/20 13:10:40;;;;;;;13.40;9.60;;;;;;;6.49;74.60;100932.53;2887005;82;21141;-62
2020/12/20 13:14:44;;;;;;;13.58;11.28;;;;;;;6.39;75.01;100936.62;2836691;82;21611;-60
2020/12/20 13:18:49;;;;;;;16.73;12.20;;;;;;;6.34;75.14;100946.56;2891690;82;21156;-62
2020/12/20 13:22:55;;;;;;;13.20;10.70;;;;;;;6.27;75.36;100939.43;2890699;82;21142;-61
2020/12/20 13:26:59;;;;;;;15.38;11.43;;;;;;;6.20;75.61;100944.66;2848098;83;21145;-61
2020/12/20 13:31:03;;;;;;;16.85;13.32;;;;;;;6.14;75.88;100941.87;2890848;82;21096;-61
2020/12/20 13:35:06;;;;;;;19.27;13.30;;;;;;;6.05;76.13;100935.77;2848111;83;21607;-64
2020/12/20 13:39:10;;;;;;;17.37;13.70;;;;;;;5.94;76.44;100937.62;2890767;82;21116;-60
2020/12/20 13:43:15;;;;;;;28.55;17.27;;;;;;;5.85;76.81;100947.70;2848323;83;21173;-60
2020/12/20 13:47:23;;;;;;;27.80;17.87;;;;;;;5.84;76.88;100953.92;2897371;81;21207;-62
2020/12/20 13:51:27;;;;;;;29.00;16.80;;;;;;;5.83;77.07;100952.70;2975619;80;21149;-63
2020/12/20 13:55:33;;;;;;;32.37;21.10;;;;;;;5.85;76.94;100946.39;2917657;81;21160;-63
2020/12/20 13:59:36;;;;;;;21.20;14.65;;;;;;;5.82;76.68;100946.55;2901299;80;21167;-61
2020/12/20 14:03:41;;;;;;;23.32;15.80;;;;;;;5.81;76.76;100944.01;2893946;80;21550;-63
2020/12/20 14:07:45;;;;;;;21.25;14.18;;;;;;;5.78;76.66;100949.42;2893353;80;21173;-64
2020/12/20 14:11:59;;;;;;;51.48;32.38;;;;;;;5.67;76.83;100952.16;2897118;80;21086;-61
2020/12/20 14:16:03;;;;;;;30.27;18.85;;;;;;;5.58;77.04;100948.64;2896073;81;21191;-61
2020/12/20 14:20:11;;;;;;;23.22;18.35;;;;;;;5.45;77.10;100955.00;2895654;81;21172;-61
2020/12/20 14:24:16;;;;;;;25.75;19.62;;;;;;;5.29;77.65;100946.52;2890567;81;21162;-61
2020/12/20 14:28:19;;;;;;;20.80;14.43;;;;;;;5.21;78.00;100951.78;2896640;80;21156;-62
2020/12/20 14:32:22;;;;;;;17.62;11.80;;;;;;;5.13;78.03;100949.55;2891287;80;21159;-62
2020/12/20 14:36:28;;;;;;;18.65;11.68;;;;;;;5.04;78.21;100945.56;2893824;81;21100;-61
2020/12/20 14:40:31;;;;;;;13.15;10.88;;;;;;;5.00;78.26;100948.80;2880176;80;21161;-61
2020/12/20 14:44:35;;;;;;;19.77;13.70;;;;;;;4.91;78.50;100945.27;2891109;82;21132;-62
2020/12/20 14:48:39;;;;;;;28.02;18.15;;;;;;;4.83;78.68;100943.48;2847968;83;21149;-61
2020/12/20 14:52:44;;;;;;;22.80;16.42;;;;;;;4.74;78.91;100950.03;2891066;82;21532;-62
2020/12/20 14:56:53;;;;;;;26.17;17.23;;;;;;;4.67;79.25;100944.19;2878401;80;21132;-63
2020/12/20 15:00:59;;;;;;;24.85;15.20;;;;;;;4.66;79.18;100942.48;2870089;80;21144;-63
2020/12/20 15:05:04;;;;;;;26.10;18.48;;;;;;;4.63;79.35;100949.22;2880024;80;21164;-62
2020/12/20 15:09:08;;;;;;;19.57;15.40;;;;;;;4.61;79.22;100944.48;2877597;80;21180;-63
2020/12/20 15:13:12;;;;;;;32.73;20.50;;;;;;;4.54;79.29;100940.44;2881907;80;21121;-62
2020/12/20 15:17:17;;;;;;;80.77;44.83;;;;;;;4.48;79.23;100930.16;2873910;81;21190;-61
2020/12/20 15:21:20;;;;;;;74.85;42.30;;;;;;;4.41;79.21;100927.81;2930322;81;21122;-62
2020/12/20 15:25:24;;;;;;;74.25;36.42;;;;;;;4.28;79.58;100920.94;2930190;81;21158;-62
2020/12/20 15:29:27;;;;;;;23.02;14.80;;;;;;;4.24;79.83;100924.64;2923428;80;21495;-62
2020/12/20 15:33:31;;;;;;;26.87;17.90;;;;;;;4.18;79.70;100926.69;2876515;81;21101;-64
2020/12/20 15:37:37;;;;;;;25.05;18.60;;;;;;;4.13;80.01;100926.44;2876398;80;21137;-61
2020/12/20 15:41:40;;;;;;;28.98;17.48;;;;;;;4.08;80.12;100924.45;2892467;82;21205;-61
2020/12/20 15:45:44;;;;;;;29.23;19.87;;;;;;;4.02;80.37;100924.73;2861491;81;21633;-62
2020/12/20 15:49:47;;;;;;;20.35;15.72;;;;;;;3.97;80.48;100919.66;2876129;80;21116;-61
2020/12/20 15:53:51;;;;;;;27.70;17.00;;;;;;;3.94;80.66;100922.44;2882122;80;21176;-62
2020/12/20 15:57:55;;;;;;;23.85;18.25;;;;;;;3.96;80.28;100921.06;2877701;80;21141;-61
2020/12/20 16:02:03;;;;;;;28.47;18.02;;;;;;;3.89;80.02;100925.73;2896096;80;21160;-62
2020/12/20 16:06:07;;;;;;;28.47;18.73;;;;;;;3.84;80.03;100923.30;2942014;79;21183;-63
2020/12/20 16:10:12;;;;;;;30.20;16.75;;;;;;;3.80;79.88;100923.49;2943257;79;21120;-61
2020/12/20 16:14:16;;;;;;;27.07;17.60;;;;;;;3.73;79.99;100922.05;2894933;82;21124;-61
2020/12/20 16:18:25;;;;;;;34.73;21.42;;;;;;;3.71;80.32;100919.48;2894459;81;21161;-61
2020/12/20 16:22:27;;;;;;;45.48;27.17;;;;;;;3.68;80.31;100916.54;2888969;81;21127;-61
2020/12/20 16:26:44;;;;;;;34.95;19.02;;;;;;;3.69;80.77;100920.88;2929972;81;21206;-64
2020/12/20 16:30:55;;;;;;;33.92;20.05;;;;;;;3.70;81.03;100929.61;2882211;81;21172;-65
2020/12/20 16:34:58;;;;;;;;;;;;;;;3.67;81.07;100927.98;2867987;81;21132;-63
2020/12/20 16:39:06;;;;;;;30.02;17.50;;;;;;;3.60;80.99;100925.20;2896236;80;20174;-65
2020/12/20 16:43:10;;;;;;;42.08;22.75;;;;;;;3.51;81.14;100929.55;2892572;81;21177;-64
2020/12/20 16:47:15;;;;;;;52.60;27.22;;;;;;;3.46;81.29;100939.42;2867193;81;21205;-64
2020/12/20 16:51:21;;;;;;;67.93;35.73;;;;;;;3.48;81.42;100942.84;2835866;82;21929;-59
2020/12/20 16:55:24;;;;;;;165.03;87.62;;;;;;;3.52;81.36;100943.94;3007783;78;21594;-64
2020/12/20 16:59:30;;;;;;;63.80;37.73;;;;;;;3.55;81.20;100946.47;2986062;78;21129;-64
2020/12/20 17:03:35;;;;;;;58.80;31.02;;;;;;;3.57;81.34;100941.99;2973319;78;21292;-65
2020/12/20 17:07:40;;;;;;;72.82;40.43;;;;;;;3.56;80.92;100933.70;2956692;78;21123;-64
2020/12/20 17:11:43;;;;;;;111.83;61.73;;;;;;;3.56;80.84;100935.47;2969776;78;21146;-63
2020/12/20 17:15:47;;;;;;;48.65;34.78;;;;;;;3.53;81.02;100933.80;2913235;80;21102;-63
2020/12/20 17:19:51;;;;;;;43.40;29.02;;;;;;;3.51;80.82;100930.39;2988824;78;22101;-62
2020/12/20 17:23:54;;;;;;;42.40;26.52;;;;;;;3.48;81.06;100931.84;2914279;78;21114;-63
2020/12/20 17:27:58;;;;;;;29.27;20.92;;;;;;;3.44;81.28;100926.31;2882178;80;30601;-62
2020/12/20 17:32:03;;;;;;;51.42;28.52;;;;;;;3.42;81.29;100924.22;2841291;82;21632;-65
2020/12/20 17:36:14;;;;;;;37.67;25.05;;;;;;;3.44;81.07;100921.05;2847093;82;21122;-65
2020/12/20 17:40:18;;;;;;;28.87;19.20;;;;;;;3.45;81.04;100915.34;2858930;82;21669;-63
2020/12/20 17:44:23;;;;;;;30.72;18.00;;;;;;;3.46;80.83;100919.69;2920109;81;21114;-62
2020/12/20 17:48:27;;;;;;;43.25;26.40;;;;;;;3.50;80.77;100919.95;2899202;81;21153;-63
2020/12/20 17:52:38;;;;;;;47.15;28.25;;;;;;;3.50;80.71;100916.00;2866911;82;21149;-63
2020/12/20 17:56:41;;;;;;;53.48;31.30;;;;;;;3.46;80.68;100917.89;2865568;82;21129;-63
2020/12/20 18:00:48;;;;;;;84.70;53.52;;;;;;;3.42;80.84;100914.53;2854891;81;21150;-63
2020/12/20 18:04:51;;;;;;;55.23;34.78;;;;;;;3.40;81.03;100915.06;2870043;81;21442;-62
2020/12/20 18:08:57;;;;;;;55.48;36.50;;;;;;;3.39;80.83;100915.14;2836408;82;21121;-61
2020/12/20 18:13:02;;;;;;;36.97;20.77;;;;;;;3.35;81.04;100915.72;2888481;81;21166;-63
2020/12/20 18:17:05;;;;;;;82.15;48.05;;;;;;;3.31;80.90;100913.27;2871534;81;21145;-62
2020/12/20 18:21:09;;;;;;;37.75;21.97;;;;;;;3.23;81.03;100924.97;3007206;78;21112;-64
2020/12/20 18:25:14;;;;;;;61.73;34.53;;;;;;;3.24;80.82;100928.44;2981358;79;21117;-64
2020/12/20 18:29:19;;;;;;;84.28;50.45;;;;;;;3.22;80.70;100931.15;2970269;79;21129;-64
2020/12/20 18:33:24;;;;;;;72.60;40.73;;;;;;;3.20;80.79;100928.17;2975429;79;21102;-63
2020/12/20 18:37:32;;;;;;;113.32;62.33;;;;;;;3.17;80.48;100929.63;2951546;79;21094;-64
2020/12/20 18:41:36;;;;;;;92.27;53.65;;;;;;;3.14;80.34;100935.84;2990093;79;21105;-63
2020/12/20 18:45:41;;;;;;;83.37;43.17;;;;;;;3.10;80.58;100936.89;2990692;78;21685;-62